• Join FlightAware (Why Join?)
  • Login
  • US Flag 
11:23AM EDT


 

Airport Tracker/Info


-or-


 

Live Flight TrackerFlight Track Log ✈ CES9734 ✈ 27-Aug-2013 ✈ ZGSZ / SZX - ZPPP / KMG

Flight Track Log - Related Links

Times and Time Zones

All times are in EDT time to prevent confusion due to time zone crossing. See the CES9734 flight status page for this flight to view local times or setup timezone preferences in your user account.

Time Position Orientation Groundspeed Altitude Reporting Facility
EDT Latitude Longitude Course Direction KTS MPH feet Rate Location/Type
07:56PM 23.9055 108.6912 286° West  Level Estimated
07:57PM 23.9301 108.5835 284° West  Level Estimated
07:58PM 23.9546 108.4757 284° West  Level Estimated
07:59PM 23.9790 108.3679 284° West  Level Estimated
08:00PM 24.0034 108.2601 284° West  Level Estimated
08:01PM 24.0277 108.1522 284° West  Level Estimated
08:02PM 24.0519 108.0443 284° West  Level Estimated
08:03PM 24.0760 107.9363 284° West  Level Estimated
08:04PM 24.1000 107.8283 284° West  Level Estimated
08:05PM 24.1240 107.7203 284° West  Level Estimated
08:06PM 24.1479 107.6122 284° West  Level Estimated
08:07PM 24.1718 107.5041 284° West  Level Estimated
08:08PM 24.1955 107.3959 284° West  Level Estimated
08:09PM 24.2192 107.2877 284° West  Level Estimated
08:10PM 24.2428 107.1795 283° West  Level Estimated
08:11PM 24.2663 107.0712 283° West  Level Estimated
08:12PM 24.2897 106.9629 283° West  Level Estimated
08:13PM 24.3131 106.8545 283° West  Level Estimated
08:14PM 24.3364 106.7461 283° West  Level Estimated
08:15PM 24.3596 106.6376 283° West  Level Estimated
08:16PM 24.3827 106.5292 283° West  Level Estimated
08:17PM 24.4058 106.4206 283° West  Level Estimated
08:18PM 24.4288 106.3121 283° West  Level Estimated
08:19PM 24.4517 106.2035 283° West  Level Estimated
08:20PM 24.4745 106.0948 283° West  Level Estimated
08:21PM 24.4973 105.9862 283° West  Level Estimated
08:22PM 24.5199 105.8774 283° West  Level Estimated
08:23PM 24.5425 105.7687 283° West  Level Estimated
08:24PM 24.5651 105.6599 283° West  Level Estimated
08:25PM 24.5875 105.5510 283° West  Level Estimated
08:26PM 24.6098 105.4422 283° West  Level Estimated
08:27PM 24.6321 105.3332 283° West  Level Estimated
08:28PM 24.6543 105.2243 283° West  Level Estimated
08:29PM 24.6765 105.1153 283° West  Level Estimated
08:30PM 24.6985 105.0063 283° West  Level Estimated
08:31PM 24.7205 104.8972 283° West  Level Estimated
08:32PM 24.7424 104.7881 282° West  Level Estimated
08:33PM 24.7642 104.6789 282° West  Level Estimated
08:34PM 24.7859 104.5697 282° West  Level Estimated
08:35PM 24.8076 104.4605 282° West  Level Estimated
08:36PM 24.8291 104.3513 282° West  Level Estimated
08:37PM 24.8506 104.2420 282° West  Level Estimated
08:38PM 24.8720 104.1326 282° West  Level Estimated
08:39PM 24.8934 104.0232 282° West  Level Estimated
08:40PM 24.9146 103.9138 282° West  Level Estimated
08:41PM 24.9358 103.8044 282° West  Level Estimated
08:42PM 24.9569 103.6949 282° West  Level Estimated
08:43PM 24.9779 103.5854 282° West  Level Estimated
08:44PM 24.9988 103.4758 282° West  Level Estimated
08:45PM 25.0196 103.3662 282° West  Level Estimated
08:46PM 25.0404 103.2566 282° West  Level Estimated
08:47PM 25.0611 103.1469 282° West  Level Estimated
08:48PM 25.0817 103.0372 282° West  Level Estimated
08:49PM 25.1019 102.9292 282° West  Level Estimated
08:50PM 25.1019 102.9292 326° Northwest  Level Estimated
08:51PM 25.1019 102.9292 326° Northwest  Level Estimated
08:52PM 25.1019 102.9292 326° Northwest  Level Estimated
08:53PM 25.1019 102.9292 326° Northwest  Level Estimated
08:54PM 25.1019 102.9292 326° Northwest  Level Estimated
08:55PM 25.1019 102.9292 326° Northwest  Level Estimated
08:56PM 25.1019 102.9292 326° Northwest  Level Estimated
08:57PM 25.1019 102.9292 326° Northwest  Level Estimated
08:58PM 25.1019 102.9292 326° Northwest  Level Estimated
08:59PM 25.1019 102.9292 326° Northwest  Level Estimated
09:00PM 25.1019 102.9292 326° Northwest  Level Estimated
09:01PM 25.1019 102.9292 326° Northwest  Level Estimated
09:02PM 25.1019 102.9292 326° Northwest  Level Estimated
09:03PM 25.1019 102.9292 326° Northwest  Level Estimated
09:04PM 25.1019 102.9292 326° Northwest  Level Estimated
09:05PM 25.1019 102.9292 326° Northwest  Level Estimated